Time;durP1;ratioP1;P1;durP2;ratioP2;P2;SDS_P1;SDS_P2;PMS_P1;PMS_P2;Temp;Humidity;BMP_temperature;BMP_pressure;BME280_temperature;BME280_humidity;BME280_pressure;Samples;Min_cycle;Max_cycle;Signal;HPM_P1;HPM_P2
2024/01/07 00:00:19;;;;;;;;;;;16.90;40.80;;;;;;5112505;28;19920;-71
2024/01/07 00:02:44;;;;;;;;;;;16.90;40.90;;;;;;5112586;28;19927;-70
2024/01/07 00:05:10;;;;;;;;;;;16.80;40.80;;;;;;5094151;28;19920;-70
2024/01/07 00:07:35;;;;;;;;;;;16.80;40.90;;;;;;5128629;28;19920;-71
2024/01/07 00:10:01;;;;;;;;;;;16.80;40.90;;;;;;5094435;28;19920;-70
2024/01/07 00:12:26;;;;;;;;;;;16.80;40.80;;;;;;5128619;28;20355;-71
2024/01/07 00:14:52;;;;;;;;;;;16.80;40.80;;;;;;5128220;28;20449;-70
2024/01/07 00:17:17;;;;;;;;;;;16.80;40.80;;;;;;5094126;28;19920;-71
2024/01/07 00:19:43;;;;;;;;;;;16.80;40.80;;;;;;5128272;28;19926;-71
2024/01/07 00:22:08;;;;;;;;;;;16.80;41.00;;;;;;5128670;28;19942;-71
2024/01/07 00:24:34;;;;;;;;;;;16.70;41.00;;;;;;5128283;28;19920;-72
2024/01/07 00:26:59;;;;;;;;;;;16.70;41.00;;;;;;5094244;28;19920;-70
2024/01/07 00:29:25;;;;;;;;;;;16.70;41.00;;;;;;5093965;28;19920;-71
2024/01/07 00:31:50;;;;;;;;;;;16.70;41.00;;;;;;5128100;28;19931;-70
2024/01/07 00:34:16;;;;;;;;;;;16.60;40.90;;;;;;5093821;28;20238;-71
2024/01/07 00:36:41;;;;;;;;;;;16.60;41.00;;;;;;5128209;28;19927;-70
2024/01/07 00:39:07;;;;;;;;;;;16.60;41.00;;;;;;5093992;28;19927;-70
2024/01/07 00:41:33;;;;;;;;;;;16.50;41.00;;;;;;5095653;28;19920;-71
2024/01/07 00:43:58;;;;;;;;;;;16.50;41.20;;;;;;5097950;28;20374;-71
2024/01/07 00:46:24;;;;;;;;;;;16.40;41.10;;;;;;5116016;28;20378;-70
2024/01/07 00:48:49;;;;;;;;;;;16.40;41.10;;;;;;5097531;28;19920;-71
2024/01/07 00:51:15;;;;;;;;;;;16.30;41.20;;;;;;5131614;27;19927;-70
2024/01/07 00:53:40;;;;;;;;;;;16.30;41.30;;;;;;5131474;27;19924;-70
2024/01/07 00:56:06;;;;;;;;;;;16.30;41.30;;;;;;5115638;28;19920;-70
2024/01/07 00:58:31;;;;;;;;;;;16.50;41.20;;;;;;5097241;28;19920;-71
2024/01/07 01:00:57;;;;;;;;;;;16.70;41.00;;;;;;5097726;28;20291;-70
2024/01/07 01:03:23;;;;;;;;;;;16.90;40.70;;;;;;5097227;28;20424;-71
2024/01/07 01:05:48;;;;;;;;;;;17.10;40.30;;;;;;5097473;28;19920;-70
2024/01/07 01:08:14;;;;;;;;;;;17.30;39.90;;;;;;5097412;28;19970;-70
2024/01/07 01:10:42;;;;;;;;;;;17.60;39.40;;;;;;5115357;28;19942;-70
2024/01/07 01:13:08;;;;;;;;;;;18.00;39.00;;;;;;5096905;28;19926;-70
2024/01/07 01:15:34;;;;;;;;;;;18.20;38.50;;;;;;5097031;28;19920;-71
2024/01/07 01:17:59;;;;;;;;;;;18.40;38.10;;;;;;5097108;28;19966;-70
2024/01/07 01:20:25;;;;;;;;;;;18.60;37.90;;;;;;5131439;27;19962;-71
2024/01/07 01:22:50;;;;;;;;;;;18.70;37.70;;;;;;5097077;28;20414;-70
2024/01/07 01:25:16;;;;;;;;;;;18.70;37.60;;;;;;5096862;28;19923;-70
2024/01/07 01:27:41;;;;;;;;;;;18.70;37.60;;;;;;5114938;28;20351;-70
2024/01/07 01:30:07;;;;;;;;;;;18.60;37.60;;;;;;5130813;27;19923;-70
2024/01/07 01:32:33;;;;;;;;;;;18.50;37.70;;;;;;5096845;28;19945;-70
2024/01/07 01:35:01;;;;;;;;;;;18.30;37.80;;;;;;5130510;27;19924;-70
2024/01/07 01:37:27;;;;;;;;;;;18.20;38.10;;;;;;5096783;28;20030;-70
2024/01/07 01:39:53;;;;;;;;;;;18.00;38.30;;;;;;5114888;28;19974;-70
2024/01/07 01:42:18;;;;;;;;;;;17.80;38.50;;;;;;5130580;27;19920;-71
2024/01/07 01:44:47;;;;;;;;;;;17.70;38.80;;;;;;5130821;27;19924;-71
2024/01/07 01:47:13;;;;;;;;;;;17.50;39.00;;;;;;5114609;28;19926;-70
2024/01/07 01:49:39;;;;;;;;;;;17.30;39.20;;;;;;5096213;28;19919;-70
2024/01/07 01:52:05;;;;;;;;;;;17.20;39.50;;;;;;5130797;27;19920;-70
2024/01/07 01:54:30;;;;;;;;;;;17.00;39.70;;;;;;5130196;27;19924;-71
2024/01/07 01:56:56;;;;;;;;;;;16.90;40.00;;;;;;5130429;27;19927;-70
2024/01/07 01:59:22;;;;;;;;;;;16.90;40.20;;;;;;5095960;28;19926;-71
2024/01/07 02:01:48;;;;;;;;;;;16.80;40.20;;;;;;5130303;27;19923;-70
2024/01/07 02:04:14;;;;;;;;;;;16.80;40.10;;;;;;5096248;28;20012;-71
2024/01/07 02:06:39;;;;;;;;;;;16.90;40.00;;;;;;5096502;28;20366;-70
2024/01/07 02:09:05;;;;;;;;;;;16.90;39.90;;;;;;5114334;28;19926;-70
2024/01/07 02:11:30;;;;;;;;;;;16.90;39.80;;;;;;5096293;28;19927;-70
2024/01/07 02:13:56;;;;;;;;;;;16.90;39.70;;;;;;5095706;28;19924;-70
2024/01/07 02:16:21;;;;;;;;;;;17.00;39.70;;;;;;5114306;28;19919;-71
2024/01/07 02:18:50;;;;;;;;;;;17.00;39.70;;;;;;5129896;27;19920;-71
2024/01/07 02:21:15;;;;;;;;;;;16.90;39.70;;;;;;5096042;28;19919;-70
2024/01/07 02:23:41;;;;;;;;;;;16.90;39.70;;;;;;5114108;28;19920;-71
2024/01/07 02:26:07;;;;;;;;;;;16.90;39.70;;;;;;5113942;28;20440;-70
2024/01/07 02:28:33;;;;;;;;;;;16.90;39.70;;;;;;5095890;28;19920;-70
2024/01/07 02:30:58;;;;;;;;;;;16.90;39.80;;;;;;5130296;27;19920;-71
2024/01/07 02:33:24;;;;;;;;;;;16.90;39.90;;;;;;5095352;28;20278;-70
2024/01/07 02:35:49;;;;;;;;;;;16.90;39.90;;;;;;5129535;27;20018;-69
2024/01/07 02:38:15;;;;;;;;;;;16.80;39.80;;;;;;5129666;27;19924;-69
2024/01/07 02:40:41;;;;;;;;;;;16.80;39.90;;;;;;5114206;28;19920;-70
2024/01/07 02:43:06;;;;;;;;;;;16.80;39.90;;;;;;5095549;28;19926;-69
2024/01/07 02:45:32;;;;;;;;;;;16.80;39.80;;;;;;5095189;28;19919;-70
2024/01/07 02:47:57;;;;;;;;;;;16.80;39.90;;;;;;5129361;27;19926;-70
2024/01/07 02:50:23;;;;;;;;;;;16.80;39.90;;;;;;5095164;28;19984;-72
2024/01/07 02:52:49;;;;;;;;;;;16.80;39.90;;;;;;5113369;28;19926;-70
2024/01/07 02:55:14;;;;;;;;;;;16.70;39.90;;;;;;5113406;28;20142;-70
2024/01/07 02:57:40;;;;;;;;;;;16.70;39.80;;;;;;5113369;28;19972;-71
2024/01/07 03:00:06;;;;;;;;;;;16.70;39.90;;;;;;5094995;28;19972;-70
2024/01/07 03:02:32;;;;;;;;;;;16.70;40.10;;;;;;5094935;28;19923;-70
2024/01/07 03:04:57;;;;;;;;;;;16.60;40.10;;;;;;5112712;28;19924;-70
2024/01/07 03:07:23;;;;;;;;;;;16.60;40.10;;;;;;5113296;28;19927;-71
2024/01/07 03:09:49;;;;;;;;;;;16.60;40.20;;;;;;5095250;28;19920;-71
2024/01/07 03:12:15;;;;;;;;;;;16.50;40.20;;;;;;5094815;28;20378;-69
2024/01/07 03:14:40;;;;;;;;;;;16.50;40.30;;;;;;5113048;28;19919;-70
2024/01/07 03:17:06;;;;;;;;;;;16.50;40.30;;;;;;5094981;28;19930;-71
2024/01/07 03:19:31;;;;;;;;;;;16.40;40.30;;;;;;5094756;28;19928;-71
2024/01/07 03:21:57;;;;;;;;;;;16.40;40.40;;;;;;5095096;28;19924;-70
2024/01/07 03:24:23;;;;;;;;;;;16.30;40.50;;;;;;5113390;28;19926;-70
2024/01/07 03:26:48;;;;;;;;;;;16.30;40.50;;;;;;5128925;27;19919;-69
2024/01/07 03:29:14;;;;;;;;;;;16.20;40.60;;;;;;5094947;28;20011;-70
2024/01/07 03:31:39;;;;;;;;;;;16.20;40.70;;;;;;5112761;28;19919;-71
2024/01/07 03:34:05;;;;;;;;;;;16.30;40.70;;;;;;5094421;28;19928;-70
2024/01/07 03:36:30;;;;;;;;;;;16.40;40.40;;;;;;5094510;28;19919;-70
2024/01/07 03:39:00;;;;;;;;;;;16.70;40.20;;;;;;5094589;28;19919;-71
2024/01/07 03:41:25;;;;;;;;;;;16.90;39.90;;;;;;5094553;28;19920;-70
2024/01/07 03:43:52;;;;;;;;;;;17.20;39.50;;;;;;5112693;28;19926;-70
2024/01/07 03:46:20;;;;;;;;;;;17.40;38.90;;;;;;5094840;28;19967;-71
2024/01/07 03:48:46;;;;;;;;;;;17.80;38.50;;;;;;5094689;28;19973;-70
2024/01/07 03:51:15;;;;;;;;;;;18.10;38.00;;;;;;5094805;28;19924;-71
2024/01/07 03:53:47;;;;;;;;;;;18.40;37.50;;;;;;5094241;28;19924;-69
2024/01/07 03:56:12;;;;;;;;;;;18.70;37.20;;;;;;5094584;28;20382;-69
2024/01/07 03:58:38;;;;;;;;;;;18.80;36.90;;;;;;5094227;28;19927;-71
2024/01/07 04:01:03;;;;;;;;;;;18.80;36.70;;;;;;5094669;28;19927;-70
2024/01/07 04:03:29;;;;;;;;;;;18.80;36.70;;;;;;5112750;28;19927;-69
2024/01/07 04:05:54;;;;;;;;;;;18.70;36.80;;;;;;5094633;28;19920;-69
2024/01/07 04:08:20;;;;;;;;;;;18.60;36.90;;;;;;5128314;28;19919;-70
2024/01/07 04:10:45;;;;;;;;;;;18.40;37.00;;;;;;5128411;28;19919;-70
2024/01/07 04:13:14;;;;;;;;;;;18.30;37.10;;;;;;5112432;28;19974;-71
2024/01/07 04:15:39;;;;;;;;;;;18.10;37.40;;;;;;5094687;28;20038;-70
2024/01/07 04:18:11;;;;;;;;;;;18.00;37.60;;;;;;5098372;28;19926;-71
2024/01/07 04:20:37;;;;;;;;;;;17.80;37.80;;;;;;5098436;28;20368;-70
2024/01/07 04:23:02;;;;;;;;;;;17.60;38.10;;;;;;5098351;28;19945;-70
2024/01/07 04:25:28;;;;;;;;;;;17.50;38.30;;;;;;5132284;27;19920;-70
2024/01/07 04:27:53;;;;;;;;;;;17.30;38.50;;;;;;5098284;28;20014;-69
2024/01/07 04:30:19;;;;;;;;;;;17.20;38.70;;;;;;5116016;28;20377;-71
2024/01/07 04:32:44;;;;;;;;;;;17.00;38.90;;;;;;5115845;28;19924;-69
2024/01/07 04:35:10;;;;;;;;;;;16.80;39.00;;;;;;5116142;28;19931;-69
2024/01/07 04:37:37;;;;;;;;;;;16.80;39.10;;;;;;5097702;28;19920;-70
2024/01/07 04:40:02;;;;;;;;;;;16.80;39.10;;;;;;5097979;28;19919;-71
2024/01/07 04:42:28;;;;;;;;;;;16.80;39.00;;;;;;5131839;27;20286;-70
2024/01/07 04:44:53;;;;;;;;;;;16.80;38.80;;;;;;5115885;28;19920;-70
2024/01/07 04:47:23;;;;;;;;;;;16.90;38.70;;;;;;5131702;27;19924;-71
2024/01/07 04:49:48;;;;;;;;;;;16.90;38.60;;;;;;5116067;28;19927;-71
2024/01/07 04:52:14;;;;;;;;;;;16.90;38.60;;;;;;5115942;28;19920;-70
2024/01/07 04:54:39;;;;;;;;;;;16.90;38.50;;;;;;5115700;28;19969;-69
2024/01/07 04:57:05;;;;;;;;;;;16.90;38.50;;;;;;5097695;28;19927;-69
2024/01/07 04:59:31;;;;;;;;;;;16.90;38.60;;;;;;5097478;28;20277;-71
2024/01/07 05:01:56;;;;;;;;;;;16.90;38.50;;;;;;5097627;28;20550;-71
2024/01/07 05:04:22;;;;;;;;;;;16.90;38.60;;;;;;5097187;28;19920;-70
2024/01/07 05:06:48;;;;;;;;;;;16.90;38.60;;;;;;5115857;28;20348;-71
2024/01/07 05:09:13;;;;;;;;;;;16.90;38.60;;;;;;5097222;28;20038;-70
2024/01/07 05:11:39;;;;;;;;;;;16.90;38.70;;;;;;5097295;28;19920;-69
2024/01/07 05:14:05;;;;;;;;;;;16.80;38.60;;;;;;5096983;28;19924;-70
2024/01/07 05:16:30;;;;;;;;;;;16.80;38.60;;;;;;5097131;28;19919;-71
2024/01/07 05:18:59;;;;;;;;;;;16.80;38.60;;;;;;5097027;28;19927;-71
2024/01/07 05:21:24;;;;;;;;;;;16.80;38.70;;;;;;5096853;28;19919;-71
2024/01/07 05:23:50;;;;;;;;;;;16.80;38.70;;;;;;5131098;27;20182;-70
2024/01/07 05:26:15;;;;;;;;;;;16.70;38.70;;;;;;5130902;27;20010;-69
2024/01/07 05:28:41;;;;;;;;;;;16.70;38.70;;;;;;5131091;27;19920;-70
2024/01/07 05:31:16;;;;;;;;;;;16.70;38.80;;;;;;5115025;28;19945;-70
2024/01/07 05:33:42;;;;;;;;;;;16.70;39.70;;;;;;5096385;28;19974;-69
2024/01/07 05:36:08;;;;;;;;;;;16.60;38.90;;;;;;5114868;28;19920;-71
2024/01/07 05:38:33;;;;;;;;;;;16.60;39.00;;;;;;5115014;28;20393;-70
2024/01/07 05:40:59;;;;;;;;;;;16.60;39.10;;;;;;5114683;28;20364;-70
2024/01/07 05:43:24;;;;;;;;;;;16.60;39.10;;;;;;5130889;27;19920;-71
2024/01/07 05:45:50;;;;;;;;;;;16.50;39.10;;;;;;5096733;28;19923;-69
2024/01/07 05:48:15;;;;;;;;;;;16.50;39.10;;;;;;5096421;28;19919;-70
2024/01/07 05:50:41;;;;;;;;;;;16.50;39.20;;;;;;5096443;28;19926;-70
2024/01/07 05:53:07;;;;;;;;;;;16.40;39.20;;;;;;5096229;28;19993;-70
2024/01/07 05:55:32;;;;;;;;;;;16.40;39.30;;;;;;5114676;28;19923;-70
2024/01/07 05:57:58;;;;;;;;;;;16.30;39.40;;;;;;5096519;28;20000;-70
2024/01/07 06:00:23;;;;;;;;;;;16.30;39.40;;;;;;5096209;28;19972;-70
2024/01/07 06:02:49;;;;;;;;;;;16.40;39.40;;;;;;5096446;28;19965;-70
2024/01/07 06:05:14;;;;;;;;;;;16.50;39.90;;;;;;5130563;27;19928;-71
2024/01/07 06:07:40;;;;;;;;;;;16.70;38.80;;;;;;5114458;28;20389;-70
2024/01/07 06:10:06;;;;;;;;;;;16.90;38.50;;;;;;5096382;28;19919;-71
2024/01/07 06:12:31;;;;;;;;;;;17.20;38.20;;;;;;5114074;28;19942;-70
2024/01/07 06:14:57;;;;;;;;;;;17.50;37.70;;;;;;5114179;28;19927;-70
2024/01/07 06:17:22;;;;;;;;;;;17.80;37.20;;;;;;5096192;28;20306;-71
2024/01/07 06:19:48;;;;;;;;;;;18.10;36.60;;;;;;5129951;27;19920;-70
2024/01/07 06:22:14;;;;;;;;;;;18.40;36.10;;;;;;5095721;28;19978;-70
2024/01/07 06:24:39;;;;;;;;;;;18.60;35.60;;;;;;5114002;28;20061;-70
2024/01/07 06:27:05;;;;;;;;;;;18.80;35.50;;;;;;5130311;27;19995;-69
2024/01/07 06:29:30;;;;;;;;;;;18.70;35.30;;;;;;5129797;27;20022;-71
2024/01/07 06:31:56;;;;;;;;;;;18.70;35.20;;;;;;5113798;28;19964;-70
2024/01/07 06:34:21;;;;;;;;;;;18.70;35.30;;;;;;5095201;28;19931;-71
2024/01/07 06:36:47;;;;;;;;;;;18.60;35.50;;;;;;5096070;28;19927;-69
2024/01/07 06:39:12;;;;;;;;;;;18.40;35.60;;;;;;5113149;28;19919;-70
2024/01/07 06:41:38;;;;;;;;;;;18.30;35.70;;;;;;5129808;27;19963;-70
2024/01/07 06:44:04;;;;;;;;;;;18.10;35.90;;;;;;5095607;28;19919;-70
2024/01/07 06:46:30;;;;;;;;;;;17.90;36.20;;;;;;5113578;28;20371;-70
2024/01/07 06:48:55;;;;;;;;;;;17.70;36.40;;;;;;5113474;28;19924;-69
2024/01/07 06:51:21;;;;;;;;;;;17.60;36.60;;;;;;5095557;28;20015;-70
2024/01/07 06:53:46;;;;;;;;;;;17.40;36.90;;;;;;5095076;28;19959;-70
2024/01/07 06:56:15;;;;;;;;;;;17.30;37.10;;;;;;5113411;28;19945;-69
2024/01/07 06:58:40;;;;;;;;;;;17.10;37.30;;;;;;5113371;28;19924;-69
2024/01/07 07:01:07;;;;;;;;;;;16.90;37.40;;;;;;5095136;28;20391;-69
2024/01/07 07:03:32;;;;;;;;;;;16.80;37.60;;;;;;5113231;28;20448;-70
2024/01/07 07:05:58;;;;;;;;;;;16.80;37.70;;;;;;5094943;28;20017;-70
2024/01/07 07:08:24;;;;;;;;;;;16.90;37.70;;;;;;5095227;28;19962;-70
2024/01/07 07:10:49;;;;;;;;;;;17.00;37.50;;;;;;5095210;28;20374;-70
2024/01/07 07:13:15;;;;;;;;;;;17.10;37.20;;;;;;5094866;28;19920;-70
2024/01/07 07:15:40;;;;;;;;;;;17.10;36.90;;;;;;5128790;27;19924;-70
2024/01/07 07:18:06;;;;;;;;;;;17.20;36.80;;;;;;5094864;28;20392;-71
2024/01/07 07:20:31;;;;;;;;;;;17.20;36.60;;;;;;5094675;28;19926;-70
2024/01/07 07:22:57;;;;;;;;;;;17.20;36.60;;;;;;5112991;28;19947;-69
2024/01/07 07:25:23;;;;;;;;;;;17.20;36.50;;;;;;5095190;28;20271;-70
2024/01/07 07:27:48;;;;;;;;;;;17.20;36.50;;;;;;5094708;28;19924;-69
2024/01/07 07:30:14;;;;;;;;;;;17.20;36.50;;;;;;5094639;28;20336;-70
2024/01/07 07:32:42;;;;;;;;;;;17.20;36.50;;;;;;5094699;28;19930;-69
2024/01/07 07:35:07;;;;;;;;;;;17.20;36.50;;;;;;5094584;28;19924;-69
2024/01/07 07:37:33;;;;;;;;;;;17.10;36.60;;;;;;5128910;28;20337;-70
2024/01/07 07:39:59;;;;;;;;;;;17.00;36.50;;;;;;5128947;28;19977;-69
2024/01/07 07:42:24;;;;;;;;;;;17.00;36.50;;;;;;5094992;28;19927;-70
2024/01/07 07:44:50;;;;;;;;;;;17.00;36.50;;;;;;5094527;28;19923;-69
2024/01/07 07:47:15;;;;;;;;;;;16.90;36.50;;;;;;5129139;28;20299;-69
2024/01/07 07:49:41;;;;;;;;;;;16.90;36.40;;;;;;5094789;28;19920;-69
2024/01/07 07:52:07;;;;;;;;;;;16.90;36.40;;;;;;5132971;27;19958;-70
2024/01/07 07:54:32;;;;;;;;;;;16.80;36.50;;;;;;5132721;27;19924;-69
2024/01/07 07:56:58;;;;;;;;;;;16.80;36.50;;;;;;5098857;28;19920;-70
2024/01/07 07:59:23;;;;;;;;;;;16.70;36.50;;;;;;5098862;28;19920;-70
2024/01/07 08:01:49;;;;;;;;;;;16.70;36.50;;;;;;5098437;28;19927;-69
2024/01/07 08:04:15;;;;;;;;;;;16.70;36.70;;;;;;5098848;28;20371;-70
2024/01/07 08:06:42;;;;;;;;;;;16.60;36.60;;;;;;5098554;28;19930;-70
2024/01/07 08:09:08;;;;;;;;;;;16.60;36.60;;;;;;5116885;28;19920;-70
2024/01/07 08:11:34;;;;;;;;;;;16.60;36.70;;;;;;5132717;27;19920;-70
2024/01/07 08:14:01;;;;;;;;;;;16.60;36.90;;;;;;5132596;27;19932;-69
2024/01/07 08:16:27;;;;;;;;;;;16.60;36.90;;;;;;5098155;28;20733;-70
2024/01/07 08:18:52;;;;;;;;;;;16.70;36.70;;;;;;5116623;28;19920;-69
2024/01/07 08:21:21;;;;;;;;;;;16.80;36.60;;;;;;5098264;28;19926;-69
2024/01/07 08:23:49;;;;;;;;;;;17.00;36.60;;;;;;5132442;27;19923;-70
2024/01/07 08:26:18;;;;;;;;;;;17.20;36.30;;;;;;5098289;28;20387;-70
2024/01/07 08:28:44;;;;;;;;;;;17.40;36.00;;;;;;5098190;28;19926;-70
2024/01/07 08:31:10;;;;;;;;;;;17.70;35.60;;;;;;5097824;28;19919;-69
2024/01/07 08:33:35;;;;;;;;;;;17.90;35.20;;;;;;5115880;28;19924;-70
2024/01/07 08:36:04;;;;;;;;;;;18.10;34.80;;;;;;5116191;28;20432;-68
2024/01/07 08:38:30;;;;;;;;;;;18.40;34.40;;;;;;5131604;27;19924;-70
2024/01/07 08:40:55;;;;;;;;;;;18.50;34.00;;;;;;5132093;27;19942;-70
2024/01/07 08:43:21;;;;;;;;;;;18.60;33.90;;;;;;5097898;28;19920;-70
2024/01/07 08:45:46;;;;;;;;;;;18.60;33.80;;;;;;5115965;28;19924;-69
2024/01/07 08:48:12;;;;;;;;;;;18.60;33.80;;;;;;5116150;28;20382;-70
2024/01/07 08:50:38;;;;;;;;;;;18.50;33.60;;;;;;5097584;28;19927;-70
2024/01/07 08:53:04;;;;;;;;;;;18.40;33.70;;;;;;5115582;28;19920;-71
2024/01/07 08:55:30;;;;;;;;;;;18.20;33.70;;;;;;5131965;27;19926;-67
2024/01/07 08:57:56;;;;;;;;;;;18.10;33.90;;;;;;5115817;28;19923;-68
2024/01/07 09:00:25;;;;;;;;;;;17.90;34.10;;;;;;5115727;28;19920;-70
2024/01/07 09:02:51;;;;;;;;;;;17.80;34.20;;;;;;5096854;28;20014;-69
2024/01/07 09:05:17;;;;;;;;;;;17.60;34.50;;;;;;5131374;27;20373;-68
2024/01/07 09:07:42;;;;;;;;;;;17.40;34.70;;;;;;5115373;28;20335;-70
2024/01/07 09:10:12;;;;;;;;;;;17.40;34.90;;;;;;5097944;28;19920;-70
2024/01/07 09:12:38;;;;;;;;;;;17.20;35.00;;;;;;5097113;28;20420;-70
2024/01/07 09:15:04;;;;;;;;;;;17.10;35.20;;;;;;5115456;28;19919;-71
2024/01/07 09:17:31;;;;;;;;;;;17.10;35.20;;;;;;5097268;28;19923;-71
2024/01/07 09:19:56;;;;;;;;;;;17.10;35.10;;;;;;5096941;28;20431;-70
2024/01/07 09:22:22;;;;;;;;;;;17.20;34.90;;;;;;5131050;27;19924;-69
2024/01/07 09:24:47;;;;;;;;;;;17.30;34.70;;;;;;5131037;27;19924;-71
2024/01/07 09:27:14;;;;;;;;;;;17.40;34.40;;;;;;5115468;28;19919;-71
2024/01/07 09:29:39;;;;;;;;;;;17.50;34.30;;;;;;5079958;28;19972;-71
2024/01/07 09:32:08;;;;;;;;;;;17.60;34.10;;;;;;5097136;28;19989;-70
2024/01/07 09:34:34;;;;;;;;;;;17.80;34.10;;;;;;5096452;28;20282;-70
2024/01/07 09:37:00;;;;;;;;;;;17.70;33.80;;;;;;5096566;28;19919;-71
2024/01/07 09:39:25;;;;;;;;;;;17.70;33.80;;;;;;5114831;28;19972;-71
2024/01/07 09:41:51;;;;;;;;;;;17.70;33.80;;;;;;5114927;28;20462;-70
2024/01/07 09:44:17;;;;;;;;;;;17.70;33.80;;;;;;5115314;28;19927;-71
2024/01/07 09:46:45;;;;;;;;;;;17.60;33.80;;;;;;5115620;28;20086;-70
2024/01/07 09:49:11;;;;;;;;;;;17.50;33.90;;;;;;5114879;27;19920;-69
2024/01/07 09:51:37;;;;;;;;;;;17.50;34.00;;;;;;5096882;28;19924;-71
2024/01/07 09:54:04;;;;;;;;;;;17.40;34.10;;;;;;5096467;28;20440;-71
2024/01/07 09:56:36;;;;;;;;;;;17.40;34.20;;;;;;5096441;28;19973;-73
2024/01/07 09:59:01;;;;;;;;;;;17.30;34.20;;;;;;5114817;28;20548;-67
2024/01/07 10:01:27;;;;;;;;;;;17.20;34.30;;;;;;5114547;28;19968;-69
2024/01/07 10:03:52;;;;;;;;;;;17.20;34.30;;;;;;5079352;28;19920;-67
2024/01/07 10:06:20;;;;;;;;;;;17.10;34.30;;;;;;5096300;28;19920;-71
2024/01/07 10:08:48;;;;;;;;;;;17.10;34.40;;;;;;5114330;28;20340;-71
2024/01/07 10:11:14;;;;;;;;;;;17.00;34.50;;;;;;5096239;28;19919;-68
2024/01/07 10:13:40;;;;;;;;;;;17.00;34.60;;;;;;5095323;28;20452;-70
2024/01/07 10:16:07;;;;;;;;;;;16.90;34.60;;;;;;5114182;28;19927;-68
2024/01/07 10:18:34;;;;;;;;;;;16.90;34.80;;;;;;5114607;28;20259;-69
2024/01/07 10:21:04;;;;;;;;;;;16.80;34.90;;;;;;5096129;28;19927;-68
2024/01/07 10:23:29;;;;;;;;;;;16.80;35.10;;;;;;5095986;28;19925;-70
2024/01/07 10:25:57;;;;;;;;;;;16.70;35.00;;;;;;5095759;28;20321;-67
2024/01/07 10:28:22;;;;;;;;;;;16.70;35.10;;;;;;5114274;28;20007;-68
2024/01/07 10:30:48;;;;;;;;;;;16.70;35.20;;;;;;5113906;28;19962;-68
2024/01/07 10:33:16;;;;;;;;;;;16.70;35.20;;;;;;5095523;28;19924;-70
2024/01/07 10:35:45;;;;;;;;;;;16.70;35.20;;;;;;5095442;28;19923;-69
2024/01/07 10:38:10;;;;;;;;;;;16.70;35.20;;;;;;5095563;28;19927;-70
2024/01/07 10:40:38;;;;;;;;;;;16.70;35.20;;;;;;5129775;27;19920;-68
2024/01/07 10:43:07;;;;;;;;;;;16.60;35.20;;;;;;5095837;28;19927;-67
2024/01/07 10:45:33;;;;;;;;;;;16.60;35.20;;;;;;5113565;28;19920;-69
2024/01/07 10:48:00;;;;;;;;;;;16.60;35.30;;;;;;5095633;28;19920;-70
2024/01/07 10:50:26;;;;;;;;;;;16.50;35.40;;;;;;5095086;28;19920;-68
2024/01/07 10:52:57;;;;;;;;;;;16.50;35.50;;;;;;5095362;28;19927;-70
2024/01/07 10:55:24;;;;;;;;;;;16.70;35.50;;;;;;5129304;27;19966;-70
2024/01/07 10:57:50;;;;;;;;;;;16.80;35.30;;;;;;5129466;27;20382;-68
2024/01/07 11:00:20;;;;;;;;;;;16.90;35.10;;;;;;5113704;28;19920;-70
2024/01/07 11:03:07;;;;;;;;;;;17.10;35.00;;;;;;5095390;28;19926;-69
2024/01/07 11:05:37;;;;;;;;;;;17.30;34.70;;;;;;5113433;28;19978;-68
2024/01/07 11:08:06;;;;;;;;;;;17.60;34.20;;;;;;5095299;28;19927;-71
2024/01/07 11:10:37;;;;;;;;;;;17.80;33.70;;;;;;5113328;28;20010;-70
2024/01/07 11:13:02;;;;;;;;;;;18.10;33.30;;;;;;5129038;27;19966;-71
2024/01/07 11:15:48;;;;;;;;;;;18.40;33.10;;;;;;5094952;28;19971;-72
2024/01/07 11:18:21;;;;;;;;;;;18.50;32.80;;;;;;5094576;28;20395;-72
2024/01/07 11:20:47;;;;;;;;;;;18.60;32.50;;;;;;5095158;28;20283;-69
2024/01/07 11:23:30;;;;;;;;;;;18.70;32.50;;;;;;5095293;28;19920;-68
2024/01/07 11:25:56;;;;;;;;;;;18.60;32.40;;;;;;5094450;28;19920;-71
2024/01/07 11:28:42;;;;;;;;;;;18.60;32.50;;;;;;5094820;28;19969;-69
2024/01/07 11:31:08;;;;;;;;;;;18.40;32.70;;;;;;5112958;28;20294;-71
2024/01/07 11:33:36;;;;;;;;;;;18.30;32.80;;;;;;5112539;28;19924;-72
2024/01/07 11:36:05;;;;;;;;;;;18.10;33.00;;;;;;5094338;28;21541;-71
2024/01/07 11:38:30;;;;;;;;;;;18.00;33.10;;;;;;5112753;28;19927;-69
2024/01/07 11:40:56;;;;;;;;;;;17.70;33.40;;;;;;5112629;28;20292;-72
2024/01/07 11:43:22;;;;;;;;;;;17.60;33.50;;;;;;5112775;28;19926;-71
2024/01/07 11:45:50;;;;;;;;;;;17.50;33.70;;;;;;5094738;28;19974;-69
2024/01/07 11:48:16;;;;;;;;;;;17.30;33.90;;;;;;5094531;28;19919;-69
2024/01/07 11:50:41;;;;;;;;;;;17.20;34.10;;;;;;5128852;28;19977;-70
2024/01/07 11:53:08;;;;;;;;;;;17.00;34.10;;;;;;5128503;28;20424;-69
2024/01/07 11:55:34;;;;;;;;;;;17.00;35.00;;;;;;5112581;28;19924;-69
2024/01/07 11:58:02;;;;;;;;;;;17.10;34.30;;;;;;5094665;28;19962;-71
2024/01/07 12:00:27;;;;;;;;;;;17.10;34.10;;;;;;5128576;28;20079;-71
2024/01/07 12:02:53;;;;;;;;;;;17.20;34.10;;;;;;5094754;28;20184;-69
2024/01/07 12:05:19;;;;;;;;;;;17.30;33.90;;;;;;5094221;28;19927;-71
2024/01/07 12:07:44;;;;;;;;;;;17.30;33.80;;;;;;5094243;28;19920;-71
2024/01/07 12:10:17;;;;;;;;;;;17.40;33.70;;;;;;5094536;28;19920;-69
2024/01/07 12:12:43;;;;;;;;;;;17.30;33.50;;;;;;5094508;28;20018;-71
2024/01/07 12:15:09;;;;;;;;;;;17.30;33.60;;;;;;5128155;28;20334;-69
2024/01/07 12:17:34;;;;;;;;;;;17.30;33.60;;;;;;5094126;28;19927;-72
2024/01/07 12:20:00;;;;;;;;;;;17.30;33.60;;;;;;5094100;28;19973;-69
2024/01/07 12:22:27;;;;;;;;;;;17.30;33.70;;;;;;5094435;28;19926;-70
2024/01/07 12:25:01;;;;;;;;;;;17.20;33.70;;;;;;5128212;28;19920;-69
2024/01/07 12:27:26;;;;;;;;;;;17.20;33.80;;;;;;5094174;28;19930;-71
2024/01/07 12:29:56;;;;;;;;;;;17.20;34.70;;;;;;5112395;28;20006;-69
2024/01/07 12:32:21;;;;;;;;;;;17.10;34.00;;;;;;5094125;28;19924;-70
2024/01/07 12:34:47;;;;;;;;;;;17.10;34.10;;;;;;5111941;28;19928;-71
2024/01/07 12:37:13;;;;;;;;;;;17.00;34.30;;;;;;5095353;28;20409;-69
2024/01/07 12:39:38;;;;;;;;;;;17.00;34.30;;;;;;5098037;28;19923;-69
2024/01/07 12:42:04;;;;;;;;;;;16.90;34.40;;;;;;5115947;28;20371;-70
2024/01/07 12:44:30;;;;;;;;;;;16.90;34.50;;;;;;5097962;28;19920;-69
2024/01/07 12:46:55;;;;;;;;;;;16.90;34.60;;;;;;5115977;28;19920;-69
2024/01/07 12:49:22;;;;;;;;;;;16.80;34.60;;;;;;5116051;28;19920;-71
2024/01/07 12:51:47;;;;;;;;;;;16.80;34.70;;;;;;5115778;28;20382;-71
2024/01/07 12:54:13;;;;;;;;;;;16.80;34.70;;;;;;5097704;28;19931;-70
2024/01/07 12:56:39;;;;;;;;;;;16.80;34.80;;;;;;5115643;28;19964;-71
2024/01/07 12:59:04;;;;;;;;;;;16.80;34.80;;;;;;5116054;28;19972;-69
2024/01/07 13:01:30;;;;;;;;;;;16.70;34.80;;;;;;5131864;27;19926;-71
2024/01/07 13:03:56;;;;;;;;;;;16.70;34.90;;;;;;5131609;27;19920;-71
2024/01/07 13:06:22;;;;;;;;;;;16.70;34.90;;;;;;5115874;28;19920;-73
2024/01/07 13:08:48;;;;;;;;;;;16.70;35.00;;;;;;5097572;28;19924;-71
2024/01/07 13:11:15;;;;;;;;;;;16.60;35.00;;;;;;5115401;28;19965;-70
2024/01/07 13:13:41;;;;;;;;;;;16.60;35.00;;;;;;5097381;28;19923;-70
2024/01/07 13:16:06;;;;;;;;;;;16.60;35.00;;;;;;5115369;28;20018;-71
2024/01/07 13:18:32;;;;;;;;;;;16.60;35.10;;;;;;5097378;28;20002;-70
2024/01/07 13:20:57;;;;;;;;;;;16.50;35.10;;;;;;5097020;28;20401;-70
2024/01/07 13:23:23;;;;;;;;;;;16.50;35.20;;;;;;5115344;28;19985;-71
2024/01/07 13:25:48;;;;;;;;;;;16.50;35.30;;;;;;5096932;28;20389;-71
2024/01/07 13:28:14;;;;;;;;;;;16.40;35.50;;;;;;5115426;28;19920;-69
2024/01/07 13:30:40;;;;;;;;;;;16.40;35.50;;;;;;5097232;28;19945;-71
2024/01/07 13:33:05;;;;;;;;;;;16.30;35.60;;;;;;5097063;28;20343;-71
2024/01/07 13:35:31;;;;;;;;;;;16.30;35.60;;;;;;5096775;28;20242;-71
2024/01/07 13:37:56;;;;;;;;;;;16.20;35.70;;;;;;5096737;28;19950;-69
2024/01/07 13:40:25;;;;;;;;;;;16.20;35.90;;;;;;5096774;28;19927;-71
2024/01/07 13:42:53;;;;;;;;;;;16.10;35.90;;;;;;5096617;28;19920;-71
2024/01/07 13:45:22;;;;;;;;;;;16.10;36.10;;;;;;5096506;28;19941;-71
2024/01/07 13:47:48;;;;;;;;;;;16.10;36.20;;;;;;5096266;28;19955;-71
2024/01/07 13:50:14;;;;;;;;;;;16.20;36.10;;;;;;5115051;28;20008;-71
2024/01/07 13:52:40;;;;;;;;;;;16.40;35.90;;;;;;5096313;28;20409;-71
2024/01/07 13:55:09;;;;;;;;;;;16.70;35.60;;;;;;5096392;28;19931;-71
2024/01/07 13:57:35;;;;;;;;;;;16.90;35.20;;;;;;5096446;28;19927;-71
2024/01/07 14:00:07;;;;;;;;;;;17.40;34.80;;;;;;5114848;28;20343;-69
2024/01/07 14:02:33;;;;;;;;;;;17.80;34.20;;;;;;5096259;28;20010;-69
2024/01/07 14:04:59;;;;;;;;;;;18.20;33.70;;;;;;5130794;27;19958;-71
2024/01/07 14:07:26;;;;;;;;;;;18.60;33.20;;;;;;5096140;28;19967;-69
2024/01/07 14:09:52;;;;;;;;;;;18.90;32.80;;;;;;5096145;28;19928;-71